TVF7091 LFML-LFPO
Flight info
| Callsign | TVF7091 |
|---|---|
| Flight time | 1h 3m |
| Altitude | 30000 |
| Route | ETREK DCT MADOT DCT MOPEM DCT PIBAT |
| Aircraft | B738/M-SDE2E3FGHIRWXY/LB1 |
Departure
| Time | 2026-05-04 19:45 |
|---|---|
| Airport | Marseille Provence Airport (LFML) |
Arrival
| Time | 2026-05-04 20:48 |
|---|---|
| Airport | Paris-Orly Airport (LFPO) |
| Time | Latitude | Longitude | Altitude | Speed | Heading |
|---|---|---|---|---|---|
| 2026-05-04 19:23 | 43.43975 | 5.22213 | 41 ft | 0 kts | 62° |
| 2026-05-04 19:27 | 43.43975 | 5.22212 | 41 ft | 2 kts | 62° |
| 2026-05-04 19:27 | 43.43963 | 5.22181 | 40 ft | 4 kts | 57° |
| 2026-05-04 19:27 | 43.43947 | 5.22153 | 39 ft | 4 kts | 36° |
| 2026-05-04 19:28 | 43.43924 | 5.22140 | 40 ft | 4 kts | 351° |
| 2026-05-04 19:28 | 43.43907 | 5.22151 | 39 ft | 0 kts | 314° |
| 2026-05-04 19:37 | 43.43914 | 5.22141 | 41 ft | 5 kts | 314° |
| 2026-05-04 19:37 | 43.43942 | 5.22102 | 40 ft | 6 kts | 314° |
| 2026-05-04 19:37 | 43.43979 | 5.22049 | 38 ft | 10 kts | 314° |
| 2026-05-04 19:37 | 43.43992 | 5.21987 | 37 ft | 7 kts | 242° |
| 2026-05-04 19:38 | 43.43953 | 5.21928 | 37 ft | 10 kts | 221° |
| 2026-05-04 19:38 | 43.43900 | 5.21848 | 37 ft | 12 kts | 252° |
| 2026-05-04 19:38 | 43.43932 | 5.21768 | 35 ft | 11 kts | 316° |
| 2026-05-04 19:38 | 43.43977 | 5.21664 | 33 ft | 15 kts | 265° |
| 2026-05-04 19:39 | 43.43921 | 5.21534 | 32 ft | 17 kts | 262° |
| 2026-05-04 19:39 | 43.43978 | 5.21404 | 30 ft | 16 kts | 316° |
| 2026-05-04 19:39 | 43.44054 | 5.21295 | 27 ft | 15 kts | 313° |
| 2026-05-04 19:39 | 43.44127 | 5.21190 | 25 ft | 15 kts | 314° |
| 2026-05-04 19:40 | 43.44197 | 5.21091 | 21 ft | 14 kts | 314° |
| 2026-05-04 19:40 | 43.44262 | 5.20993 | 19 ft | 14 kts | 305° |
| 2026-05-04 19:40 | 43.44308 | 5.20885 | 17 ft | 13 kts | 300° |
| 2026-05-04 19:40 | 43.44363 | 5.20789 | 17 ft | 13 kts | 313° |
| 2026-05-04 19:41 | 43.44422 | 5.20701 | 17 ft | 12 kts | 315° |
| 2026-05-04 19:41 | 43.44481 | 5.20618 | 17 ft | 12 kts | 313° |
| 2026-05-04 19:41 | 43.44538 | 5.20536 | 17 ft | 12 kts | 314° |
| 2026-05-04 19:41 | 43.44595 | 5.20456 | 17 ft | 12 kts | 313° |
| 2026-05-04 19:42 | 43.44657 | 5.20367 | 17 ft | 15 kts | 314° |
| 2026-05-04 19:42 | 43.44731 | 5.20261 | 16 ft | 15 kts | 314° |
| 2026-05-04 19:42 | 43.44804 | 5.20157 | 16 ft | 15 kts | 315° |
| 2026-05-04 19:42 | 43.44874 | 5.20058 | 16 ft | 14 kts | 313° |
| 2026-05-04 19:43 | 43.44941 | 5.19962 | 16 ft | 14 kts | 314° |
| 2026-05-04 19:43 | 43.44974 | 5.19852 | 16 ft | 13 kts | 256° |
| 2026-05-04 19:43 | 43.44906 | 5.19787 | 17 ft | 13 kts | 179° |
| 2026-05-04 19:43 | 43.44832 | 5.19847 | 16 ft | 12 kts | 135° |
| 2026-05-04 19:44 | 43.44774 | 5.19933 | 15 ft | 12 kts | 134° |
| 2026-05-04 19:44 | 43.44659 | 5.20095 | 16 ft | 52 kts | 133° |
| 2026-05-04 19:44 | 43.44245 | 5.20693 | 17 ft | 118 kts | 134° |
| 2026-05-04 19:44 | 43.43572 | 5.21666 | 233 ft | 153 kts | 131° |
| 2026-05-04 19:45 | 43.42815 | 5.22764 | 923 ft | 163 kts | 129° |
| 2026-05-04 19:45 | 43.42186 | 5.23935 | 2069 ft | 138 kts | 115° |
| 2026-05-04 19:45 | 43.41952 | 5.25270 | 2666 ft | 156 kts | 97° |
| 2026-05-04 19:45 | 43.42251 | 5.26852 | 2815 ft | 202 kts | 57° |
| 2026-05-04 19:46 | 43.43368 | 5.28146 | 3414 ft | 201 kts | 45° |
| 2026-05-04 19:46 | 43.44679 | 5.29029 | 3885 ft | 227 kts | 14° |
| 2026-05-04 19:46 | 43.46338 | 5.28867 | 4083 ft | 254 kts | 349° |
| 2026-05-04 19:46 | 43.48086 | 5.28146 | 4425 ft | 267 kts | 342° |
| 2026-05-04 19:47 | 43.49856 | 5.27314 | 4993 ft | 268 kts | 341° |
| 2026-05-04 19:47 | 43.51622 | 5.26484 | 5469 ft | 275 kts | 341° |
| 2026-05-04 19:47 | 43.53498 | 5.25622 | 5824 ft | 291 kts | 341° |
| 2026-05-04 19:47 | 43.55436 | 5.24745 | 6594 ft | 293 kts | 341° |
| 2026-05-04 19:48 | 43.57380 | 5.23872 | 7410 ft | 295 kts | 341° |
| 2026-05-04 19:48 | 43.59347 | 5.22989 | 8132 ft | 299 kts | 340° |
| 2026-05-04 19:48 | 43.61333 | 5.22097 | 8901 ft | 301 kts | 340° |
| 2026-05-04 19:48 | 43.63338 | 5.21196 | 9640 ft | 306 kts | 340° |
| 2026-05-04 19:49 | 43.65375 | 5.20279 | 10309 ft | 311 kts | 340° |
| 2026-05-04 19:49 | 43.67498 | 5.19322 | 10554 ft | 332 kts | 340° |
| 2026-05-04 19:49 | 43.69766 | 5.18299 | 10780 ft | 352 kts | 340° |
| 2026-05-04 19:49 | 43.72122 | 5.17227 | 11275 ft | 360 kts | 340° |
| 2026-05-04 19:50 | 43.74499 | 5.16111 | 12033 ft | 361 kts | 339° |
| 2026-05-04 19:50 | 43.76884 | 5.14977 | 12759 ft | 365 kts | 339° |
| 2026-05-04 19:50 | 43.79302 | 5.13825 | 13445 ft | 369 kts | 339° |
| 2026-05-04 19:50 | 43.81738 | 5.12666 | 13887 ft | 370 kts | 339° |
| 2026-05-04 19:51 | 43.84182 | 5.11505 | 13959 ft | 375 kts | 339° |
| 2026-05-04 19:51 | 43.86661 | 5.10327 | 14052 ft | 379 kts | 339° |
| 2026-05-04 19:51 | 43.89183 | 5.09209 | 14676 ft | 383 kts | 343° |
| 2026-05-04 19:51 | 43.91791 | 5.08452 | 15466 ft | 384 kts | 348° |
| 2026-05-04 19:52 | 43.94444 | 5.07872 | 16215 ft | 387 kts | 350° |
| 2026-05-04 19:52 | 43.97124 | 5.07338 | 16832 ft | 393 kts | 350° |
| 2026-05-04 19:52 | 43.99850 | 5.06791 | 17442 ft | 398 kts | 350° |
| 2026-05-04 19:52 | 44.02602 | 5.06217 | 18077 ft | 403 kts | 349° |
| 2026-05-04 19:53 | 44.05385 | 5.05614 | 18686 ft | 406 kts | 349° |
| 2026-05-04 19:53 | 44.08188 | 5.04989 | 19274 ft | 409 kts | 349° |
| 2026-05-04 19:53 | 44.11010 | 5.04349 | 19854 ft | 413 kts | 348° |
| 2026-05-04 19:53 | 44.13856 | 5.03698 | 20419 ft | 416 kts | 348° |
| 2026-05-04 19:54 | 44.16727 | 5.03036 | 20980 ft | 420 kts | 348° |
| 2026-05-04 19:54 | 44.19582 | 5.02378 | 21506 ft | 424 kts | 348° |
| 2026-05-04 19:54 | 44.22546 | 5.01692 | 22035 ft | 428 kts | 348° |
| 2026-05-04 19:54 | 44.25457 | 5.01019 | 22543 ft | 432 kts | 348° |
| 2026-05-04 19:55 | 44.28474 | 5.00321 | 23066 ft | 436 kts | 348° |
| 2026-05-04 19:55 | 44.31434 | 4.99636 | 23576 ft | 439 kts | 348° |
| 2026-05-04 19:55 | 44.34497 | 4.98927 | 24025 ft | 442 kts | 348° |
| 2026-05-04 19:55 | 44.37536 | 4.98222 | 24489 ft | 443 kts | 348° |
| 2026-05-04 19:56 | 44.40586 | 4.97515 | 24946 ft | 445 kts | 348° |
| 2026-05-04 19:56 | 44.43651 | 4.96803 | 25378 ft | 448 kts | 348° |
| 2026-05-04 19:56 | 44.46733 | 4.96085 | 25806 ft | 450 kts | 348° |
| 2026-05-04 19:56 | 44.49793 | 4.95372 | 26236 ft | 452 kts | 348° |
| 2026-05-04 19:57 | 44.52904 | 4.94647 | 26655 ft | 454 kts | 348° |
| 2026-05-04 19:57 | 44.56032 | 4.93916 | 27047 ft | 457 kts | 348° |
| 2026-05-04 19:57 | 44.59172 | 4.93182 | 27437 ft | 459 kts | 348° |
| 2026-05-04 19:57 | 44.62327 | 4.92443 | 27823 ft | 461 kts | 348° |
| 2026-05-04 19:58 | 44.65503 | 4.91698 | 28209 ft | 463 kts | 348° |
| 2026-05-04 19:58 | 44.68693 | 4.90950 | 28594 ft | 466 kts | 348° |
| 2026-05-04 19:58 | 44.71890 | 4.90194 | 28949 ft | 468 kts | 346° |
| 2026-05-04 19:58 | 44.75026 | 4.88985 | 29245 ft | 466 kts | 336° |
| 2026-05-04 19:59 | 44.78049 | 4.87321 | 29580 ft | 467 kts | 334° |
| 2026-05-04 19:59 | 44.81051 | 4.85537 | 29903 ft | 469 kts | 333° |
| 2026-05-04 19:59 | 44.84065 | 4.83725 | 29986 ft | 474 kts | 333° |
| 2026-05-04 20:00 | 44.90182 | 4.80144 | 29984 ft | 476 kts | 334° |
| 2026-05-04 20:00 | 44.96285 | 4.76684 | 29992 ft | 472 kts | 335° |
| 2026-05-04 20:01 | 45.02336 | 4.73271 | 29979 ft | 458 kts | 335° |
| 2026-05-04 20:01 | 45.08188 | 4.69955 | 29990 ft | 452 kts | 334° |
| 2026-05-04 20:02 | 45.14035 | 4.66622 | 29996 ft | 454 kts | 335° |
| 2026-05-04 20:02 | 45.19968 | 4.63446 | 29985 ft | 460 kts | 343° |
| 2026-05-04 20:03 | 45.26310 | 4.61899 | 29992 ft | 464 kts | 350° |
| 2026-05-04 20:03 | 45.32719 | 4.60640 | 29982 ft | 465 kts | 349° |
| 2026-05-04 20:04 | 45.39119 | 4.59262 | 29987 ft | 465 kts | 348° |
| 2026-05-04 20:04 | 45.45492 | 4.57801 | 29972 ft | 464 kts | 348° |
| 2026-05-04 20:05 | 45.51864 | 4.56321 | 29967 ft | 463 kts | 348° |
| 2026-05-04 20:05 | 45.58209 | 4.54848 | 29975 ft | 462 kts | 348° |
| 2026-05-04 20:06 | 45.64540 | 4.53376 | 29976 ft | 461 kts | 347° |
| 2026-05-04 20:06 | 45.70829 | 4.51912 | 29971 ft | 461 kts | 347° |
| 2026-05-04 20:07 | 45.77208 | 4.50429 | 29986 ft | 462 kts | 347° |
| 2026-05-04 20:07 | 45.83520 | 4.48965 | 29984 ft | 463 kts | 347° |
| 2026-05-04 20:08 | 45.89891 | 4.47480 | 29986 ft | 465 kts | 347° |
| 2026-05-04 20:08 | 45.96281 | 4.45984 | 29978 ft | 466 kts | 347° |
| 2026-05-04 20:09 | 46.02674 | 4.44484 | 29979 ft | 465 kts | 347° |
| 2026-05-04 20:09 | 46.09066 | 4.42980 | 29984 ft | 465 kts | 347° |
| 2026-05-04 20:10 | 46.15454 | 4.41473 | 29969 ft | 465 kts | 347° |
| 2026-05-04 20:10 | 46.21833 | 4.39963 | 29964 ft | 464 kts | 347° |
| 2026-05-04 20:11 | 46.28202 | 4.38454 | 29951 ft | 463 kts | 347° |
| 2026-05-04 20:11 | 46.34550 | 4.36951 | 29968 ft | 461 kts | 347° |
| 2026-05-04 20:12 | 46.40873 | 4.35451 | 29950 ft | 460 kts | 347° |
| 2026-05-04 20:12 | 46.47168 | 4.33951 | 29944 ft | 458 kts | 347° |
| 2026-05-04 20:13 | 46.53437 | 4.32451 | 29953 ft | 455 kts | 347° |
| 2026-05-04 20:13 | 46.59684 | 4.30952 | 29941 ft | 453 kts | 347° |
| 2026-05-04 20:14 | 46.65898 | 4.29458 | 29958 ft | 452 kts | 348° |
| 2026-05-04 20:14 | 46.72098 | 4.27961 | 29949 ft | 451 kts | 348° |
| 2026-05-04 20:15 | 46.78269 | 4.26321 | 29943 ft | 449 kts | 341° |
| 2026-05-04 20:15 | 46.81170 | 4.24721 | 29947 ft | 444 kts | 330° |
| 2026-05-04 20:15 | 46.83932 | 4.22731 | 29955 ft | 443 kts | 329° |
| 2026-05-04 20:16 | 46.89426 | 4.18622 | 29947 ft | 443 kts | 329° |
| 2026-05-04 20:16 | 46.94888 | 4.14557 | 29943 ft | 444 kts | 330° |
| 2026-05-04 20:17 | 47.00358 | 4.10540 | 29924 ft | 430 kts | 330° |
| 2026-05-04 20:17 | 47.05667 | 4.06657 | 29935 ft | 425 kts | 330° |
| 2026-05-04 20:18 | 47.10983 | 4.02756 | 29545 ft | 427 kts | 330° |
| 2026-05-04 20:18 | 47.13619 | 4.00821 | 29154 ft | 421 kts | 330° |
| 2026-05-04 20:18 | 47.16224 | 3.98906 | 28766 ft | 417 kts | 330° |
| 2026-05-04 20:18 | 47.18806 | 3.97006 | 28334 ft | 413 kts | 330° |
| 2026-05-04 20:19 | 47.21361 | 3.95124 | 27930 ft | 409 kts | 330° |
| 2026-05-04 20:19 | 47.23897 | 3.93252 | 27516 ft | 406 kts | 330° |
| 2026-05-04 20:19 | 47.26412 | 3.91394 | 27109 ft | 403 kts | 330° |
| 2026-05-04 20:19 | 47.28911 | 3.89546 | 26710 ft | 401 kts | 330° |
| 2026-05-04 20:20 | 47.30549 | 3.88333 | 26438 ft | 399 kts | 330° |
| 2026-05-04 20:20 | 47.33031 | 3.86494 | 26036 ft | 396 kts | 330° |
| 2026-05-04 20:20 | 47.35485 | 3.84673 | 25649 ft | 394 kts | 330° |
| 2026-05-04 20:20 | 47.37930 | 3.82858 | 25249 ft | 392 kts | 330° |
| 2026-05-04 20:21 | 47.40354 | 3.81056 | 24861 ft | 390 kts | 330° |
| 2026-05-04 20:21 | 47.42776 | 3.79254 | 24467 ft | 388 kts | 330° |
| 2026-05-04 20:21 | 47.47583 | 3.75671 | 23691 ft | 386 kts | 330° |
| 2026-05-04 20:22 | 47.49974 | 3.73887 | 23246 ft | 384 kts | 330° |
| 2026-05-04 20:22 | 47.52355 | 3.72108 | 22816 ft | 382 kts | 330° |
| 2026-05-04 20:22 | 47.54715 | 3.70343 | 22408 ft | 379 kts | 330° |
| 2026-05-04 20:22 | 47.57067 | 3.68583 | 22024 ft | 376 kts | 330° |
| 2026-05-04 20:23 | 47.59396 | 3.66838 | 21634 ft | 374 kts | 330° |
| 2026-05-04 20:23 | 47.61707 | 3.65104 | 21252 ft | 371 kts | 330° |
| 2026-05-04 20:23 | 47.63998 | 3.63384 | 20878 ft | 368 kts | 330° |
| 2026-05-04 20:23 | 47.66274 | 3.61674 | 20507 ft | 365 kts | 331° |
| 2026-05-04 20:24 | 47.68532 | 3.59974 | 20144 ft | 363 kts | 331° |
| 2026-05-04 20:24 | 47.70753 | 3.58225 | 19817 ft | 358 kts | 326° |
| 2026-05-04 20:24 | 47.72827 | 3.56241 | 19581 ft | 353 kts | 323° |
| 2026-05-04 20:24 | 47.74842 | 3.54188 | 19334 ft | 350 kts | 323° |
| 2026-05-04 20:25 | 47.76830 | 3.52130 | 19090 ft | 347 kts | 323° |
| 2026-05-04 20:25 | 47.78807 | 3.50083 | 18860 ft | 347 kts | 323° |
| 2026-05-04 20:25 | 47.80801 | 3.48029 | 18637 ft | 350 kts | 323° |
| 2026-05-04 20:25 | 47.82808 | 3.45971 | 18402 ft | 351 kts | 323° |
| 2026-05-04 20:26 | 47.84815 | 3.43922 | 18153 ft | 348 kts | 323° |
| 2026-05-04 20:26 | 47.86805 | 3.41895 | 17884 ft | 347 kts | 323° |
| 2026-05-04 20:26 | 47.88796 | 3.39868 | 17617 ft | 345 kts | 324° |
| 2026-05-04 20:26 | 47.90772 | 3.37857 | 17347 ft | 343 kts | 324° |
| 2026-05-04 20:27 | 47.92739 | 3.35854 | 17089 ft | 342 kts | 323° |
| 2026-05-04 20:27 | 47.94678 | 3.33877 | 16842 ft | 340 kts | 323° |
| 2026-05-04 20:27 | 47.96646 | 3.31871 | 16576 ft | 339 kts | 323° |
| 2026-05-04 20:27 | 47.98580 | 3.29896 | 16319 ft | 337 kts | 323° |
| 2026-05-04 20:28 | 48.00520 | 3.27914 | 16069 ft | 336 kts | 324° |
| 2026-05-04 20:28 | 48.02422 | 3.25969 | 15819 ft | 335 kts | 324° |
| 2026-05-04 20:28 | 48.04365 | 3.23980 | 15570 ft | 334 kts | 324° |
| 2026-05-04 20:28 | 48.06249 | 3.22049 | 15327 ft | 332 kts | 324° |
| 2026-05-04 20:29 | 48.08177 | 3.20072 | 15076 ft | 331 kts | 324° |
| 2026-05-04 20:29 | 48.10073 | 3.18125 | 14831 ft | 330 kts | 324° |
| 2026-05-04 20:29 | 48.11962 | 3.16184 | 14590 ft | 329 kts | 324° |
| 2026-05-04 20:29 | 48.13842 | 3.14250 | 14350 ft | 327 kts | 324° |
| 2026-05-04 20:30 | 48.15714 | 3.12324 | 14108 ft | 326 kts | 324° |
| 2026-05-04 20:30 | 48.17576 | 3.10405 | 13873 ft | 325 kts | 324° |
| 2026-05-04 20:30 | 48.19411 | 3.08513 | 13636 ft | 323 kts | 324° |
| 2026-05-04 20:30 | 48.21259 | 3.06605 | 13372 ft | 322 kts | 324° |
| 2026-05-04 20:31 | 48.23098 | 3.04705 | 13106 ft | 321 kts | 324° |
| 2026-05-04 20:31 | 48.24933 | 3.02807 | 12845 ft | 320 kts | 324° |
| 2026-05-04 20:31 | 48.26761 | 3.00915 | 12583 ft | 319 kts | 324° |
| 2026-05-04 20:31 | 48.28585 | 2.99026 | 12329 ft | 318 kts | 324° |
| 2026-05-04 20:32 | 48.30427 | 2.97115 | 12065 ft | 317 kts | 324° |
| 2026-05-04 20:32 | 48.32220 | 2.95254 | 11804 ft | 317 kts | 324° |
| 2026-05-04 20:32 | 48.34031 | 2.93372 | 11574 ft | 316 kts | 325° |
| 2026-05-04 20:32 | 48.35838 | 2.91492 | 11320 ft | 316 kts | 325° |
| 2026-05-04 20:33 | 48.37641 | 2.89615 | 11076 ft | 315 kts | 325° |
| 2026-05-04 20:33 | 48.39442 | 2.87739 | 10832 ft | 314 kts | 325° |
| 2026-05-04 20:33 | 48.41231 | 2.85876 | 10581 ft | 311 kts | 325° |
| 2026-05-04 20:33 | 48.42997 | 2.84036 | 10397 ft | 304 kts | 325° |
| 2026-05-04 20:34 | 48.44604 | 2.82052 | 10391 ft | 296 kts | 308° |
| 2026-05-04 20:34 | 48.45541 | 2.79309 | 10414 ft | 299 kts | 285° |
| 2026-05-04 20:34 | 48.45809 | 2.76185 | 10446 ft | 304 kts | 272° |
| 2026-05-04 20:34 | 48.45878 | 2.72984 | 10446 ft | 306 kts | 271° |
| 2026-05-04 20:35 | 48.45942 | 2.69787 | 10442 ft | 304 kts | 271° |
| 2026-05-04 20:35 | 48.46020 | 2.66609 | 10438 ft | 303 kts | 272° |
| 2026-05-04 20:35 | 48.46105 | 2.63480 | 10418 ft | 295 kts | 272° |
| 2026-05-04 20:35 | 48.46210 | 2.60425 | 10255 ft | 289 kts | 272° |
| 2026-05-04 20:36 | 48.46310 | 2.57446 | 10125 ft | 281 kts | 272° |
| 2026-05-04 20:36 | 48.46407 | 2.54537 | 10014 ft | 276 kts | 272° |
| 2026-05-04 20:36 | 48.46494 | 2.51632 | 9774 ft | 280 kts | 272° |
| 2026-05-04 20:36 | 48.46580 | 2.48693 | 9489 ft | 282 kts | 272° |
| 2026-05-04 20:37 | 48.46677 | 2.45737 | 9190 ft | 281 kts | 272° |
| 2026-05-04 20:37 | 48.46773 | 2.42811 | 8923 ft | 278 kts | 272° |
| 2026-05-04 20:37 | 48.46860 | 2.39912 | 8662 ft | 276 kts | 272° |
| 2026-05-04 20:37 | 48.46941 | 2.37043 | 8400 ft | 273 kts | 272° |
| 2026-05-04 20:38 | 48.47036 | 2.34200 | 8160 ft | 270 kts | 272° |
| 2026-05-04 20:38 | 48.47138 | 2.31376 | 7907 ft | 269 kts | 272° |
| 2026-05-04 20:38 | 48.47241 | 2.28569 | 7670 ft | 267 kts | 272° |
| 2026-05-04 20:38 | 48.47342 | 2.25777 | 7431 ft | 266 kts | 272° |
| 2026-05-04 20:39 | 48.47443 | 2.23006 | 7198 ft | 265 kts | 273° |
| 2026-05-04 20:39 | 48.47546 | 2.20246 | 6979 ft | 263 kts | 273° |
| 2026-05-04 20:39 | 48.47655 | 2.17488 | 6748 ft | 263 kts | 273° |
| 2026-05-04 20:39 | 48.47766 | 2.14746 | 6541 ft | 262 kts | 273° |
| 2026-05-04 20:40 | 48.47878 | 2.12008 | 6346 ft | 261 kts | 274° |
| 2026-05-04 20:40 | 48.48331 | 2.09397 | 6253 ft | 257 kts | 301° |
| 2026-05-04 20:40 | 48.49504 | 2.07382 | 6176 ft | 260 kts | 319° |
| 2026-05-04 20:40 | 48.50904 | 2.05612 | 6071 ft | 265 kts | 321° |
| 2026-05-04 20:41 | 48.52337 | 2.03857 | 5957 ft | 264 kts | 321° |
| 2026-05-04 20:41 | 48.53743 | 2.02142 | 5813 ft | 256 kts | 322° |
| 2026-05-04 20:41 | 48.55114 | 2.00470 | 5624 ft | 252 kts | 322° |
| 2026-05-04 20:41 | 48.56477 | 1.98869 | 5433 ft | 244 kts | 328° |
| 2026-05-04 20:42 | 48.58023 | 1.98100 | 5257 ft | 228 kts | 6° |
| 2026-05-04 20:42 | 48.59407 | 1.98919 | 5186 ft | 211 kts | 43° |
| 2026-05-04 20:42 | 48.60366 | 2.00518 | 4966 ft | 204 kts | 50° |
| 2026-05-04 20:42 | 48.61244 | 2.02172 | 4719 ft | 199 kts | 54° |
| 2026-05-04 20:43 | 48.62046 | 2.03845 | 4463 ft | 195 kts | 56° |
| 2026-05-04 20:43 | 48.62768 | 2.05549 | 4204 ft | 191 kts | 60° |
| 2026-05-04 20:43 | 48.63415 | 2.07279 | 3939 ft | 188 kts | 62° |
| 2026-05-04 20:43 | 48.64029 | 2.09007 | 3682 ft | 185 kts | 62° |
| 2026-05-04 20:44 | 48.64623 | 2.10697 | 3433 ft | 178 kts | 62° |
| 2026-05-04 20:44 | 48.65190 | 2.12314 | 3202 ft | 170 kts | 62° |
| 2026-05-04 20:44 | 48.65734 | 2.13866 | 2975 ft | 164 kts | 62° |
| 2026-05-04 20:44 | 48.66261 | 2.15370 | 2770 ft | 160 kts | 62° |
| 2026-05-04 20:45 | 48.66780 | 2.16850 | 2579 ft | 160 kts | 62° |
| 2026-05-04 20:45 | 48.67299 | 2.18329 | 2366 ft | 156 kts | 62° |
| 2026-05-04 20:45 | 48.67802 | 2.19762 | 2139 ft | 152 kts | 62° |
| 2026-05-04 20:45 | 48.68291 | 2.21154 | 1947 ft | 149 kts | 61° |
| 2026-05-04 20:46 | 48.68780 | 2.22545 | 1765 ft | 150 kts | 61° |
| 2026-05-04 20:46 | 48.69269 | 2.23939 | 1539 ft | 150 kts | 61° |
| 2026-05-04 20:46 | 48.69762 | 2.25340 | 1321 ft | 151 kts | 61° |
| 2026-05-04 20:46 | 48.70256 | 2.26745 | 1105 ft | 152 kts | 60° |
| 2026-05-04 20:47 | 48.70754 | 2.28159 | 902 ft | 151 kts | 60° |
| 2026-05-04 20:47 | 48.71244 | 2.29561 | 715 ft | 150 kts | 59° |
| 2026-05-04 20:47 | 48.71740 | 2.30951 | 513 ft | 150 kts | 60° |
| 2026-05-04 20:47 | 48.72229 | 2.32345 | 326 ft | 149 kts | 59° |
| 2026-05-04 20:48 | 48.72683 | 2.33615 | 309 ft | 118 kts | 62° |
| 2026-05-04 20:48 | 48.72967 | 2.34430 | 306 ft | 57 kts | 63° |
| 2026-05-04 20:48 | 48.73089 | 2.34773 | 308 ft | 31 kts | 62° |
| 2026-05-04 20:48 | 48.73186 | 2.35047 | 305 ft | 29 kts | 62° |
| 2026-05-04 20:49 | 48.73259 | 2.35246 | 304 ft | 16 kts | 63° |
| 2026-05-04 20:49 | 48.73276 | 2.35373 | 305 ft | 12 kts | 99° |
| 2026-05-04 20:49 | 48.73228 | 2.35467 | 306 ft | 9 kts | 144° |
| 2026-05-04 20:49 | 48.73207 | 2.35488 | 304 ft | 3 kts | 147° |
| 2026-05-04 20:50 | 48.73189 | 2.35506 | 305 ft | 3 kts | 147° |
| 2026-05-04 20:50 | 48.73172 | 2.35523 | 307 ft | 3 kts | 146° |
| 2026-05-04 20:50 | 48.73154 | 2.35541 | 304 ft | 4 kts | 146° |
| 2026-05-04 20:50 | 48.73128 | 2.35568 | 306 ft | 5 kts | 145° |
| 2026-05-04 20:51 | 48.73092 | 2.35603 | 308 ft | 9 kts | 150° |
| 2026-05-04 20:51 | 48.73023 | 2.35577 | 305 ft | 13 kts | 222° |
| 2026-05-04 20:51 | 48.72942 | 2.35527 | 306 ft | 13 kts | 178° |
| 2026-05-04 20:51 | 48.72850 | 2.35560 | 309 ft | 13 kts | 165° |
| 2026-05-04 20:52 | 48.72789 | 2.35609 | 306 ft | 8 kts | 129° |
| 2026-05-04 20:52 | 48.72780 | 2.35677 | 304 ft | 6 kts | 81° |
| 2026-05-04 20:52 | 48.72787 | 2.35722 | 304 ft | 2 kts | 60° |
| 2026-05-04 20:52 | 48.72788 | 2.35724 | 304 ft | 0 kts | 53° |
| 2026-05-04 20:53 | 48.72811 | 2.35740 | 306 ft | 6 kts | 17° |
| 2026-05-04 20:53 | 48.72819 | 2.35744 | 306 ft | 0 kts | 16° |
| 2026-05-04 20:53 | 48.72826 | 2.35747 | 305 ft | 3 kts | 14° |
| 2026-05-04 20:53 | 48.72835 | 2.35750 | 305 ft | 2 kts | 14° |
| 2026-05-04 20:54 | 48.72837 | 2.35751 | 305 ft | 0 kts | 14° |